Aviation Digital Data Service (ADDS)

Output produced by METARs form (0406 UTC 23 October 2018)
found at http://aviationweather.gov/metar/data/
 
KBPT 222321Z 2300/2324 02008KT P6SM BKN150 OVC200 
     FM230600 02009KT P6SM -RA FEW025 BKN060 
     FM231500 03012KT P6SM -RA FEW015 BKN060 
     FM231800 03012KT 3SM -RA OVC015